sensor_id;sensor_type;location;lat;lon;timestamp;P1;durP1;ratioP1;P2;durP2;ratioP2
57055;SDS011;42945;51.718;5.324;2022-08-19T00:01:01;25.13;;;16.55;;
57055;SDS011;42945;51.718;5.324;2022-08-19T00:06:52;24.98;;;17.10;;
57055;SDS011;42945;51.718;5.324;2022-08-19T00:12:41;29.50;;;19.30;;
57055;SDS011;42945;51.718;5.324;2022-08-19T00:18:30;32.75;;;20.35;;
57055;SDS011;42945;51.718;5.324;2022-08-19T00:24:19;35.67;;;21.75;;
57055;SDS011;42945;51.718;5.324;2022-08-19T00:30:08;35.80;;;22.08;;
57055;SDS011;42945;51.718;5.324;2022-08-19T00:36:02;39.03;;;21.80;;
57055;SDS011;42945;51.718;5.324;2022-08-19T00:41:53;37.35;;;22.30;;
57055;SDS011;42945;51.718;5.324;2022-08-19T00:51:44;46.80;;;25.08;;
57055;SDS011;42945;51.718;5.324;2022-08-19T00:57:35;46.42;;;24.63;;
57055;SDS011;42945;51.718;5.324;2022-08-19T01:03:27;41.33;;;24.08;;
57055;SDS011;42945;51.718;5.324;2022-08-19T01:09:15;42.25;;;25.35;;
57055;SDS011;42945;51.718;5.324;2022-08-19T01:15:03;47.72;;;26.00;;
57055;SDS011;42945;51.718;5.324;2022-08-19T01:20:54;49.35;;;26.17;;
57055;SDS011;42945;51.718;5.324;2022-08-19T01:26:45;47.27;;;25.80;;
57055;SDS011;42945;51.718;5.324;2022-08-19T01:32:33;51.25;;;26.27;;
57055;SDS011;42945;51.718;5.324;2022-08-19T01:38:23;55.70;;;27.48;;
57055;SDS011;42945;51.718;5.324;2022-08-19T01:44:19;48.88;;;27.63;;
57055;SDS011;42945;51.718;5.324;2022-08-19T01:54:14;54.00;;;27.77;;
57055;SDS011;42945;51.718;5.324;2022-08-19T02:00:06;54.00;;;27.48;;
57055;SDS011;42945;51.718;5.324;2022-08-19T02:05:59;56.13;;;29.48;;
57055;SDS011;42945;51.718;5.324;2022-08-19T02:11:50;61.90;;;30.35;;
57055;SDS011;42945;51.718;5.324;2022-08-19T02:17:39;62.40;;;30.93;;
57055;SDS011;42945;51.718;5.324;2022-08-19T02:23:29;55.08;;;29.95;;
57055;SDS011;42945;51.718;5.324;2022-08-19T02:29:18;58.55;;;29.27;;
57055;SDS011;42945;51.718;5.324;2022-08-19T02:35:06;57.38;;;30.27;;
57055;SDS011;42945;51.718;5.324;2022-08-19T02:46:48;67.77;;;31.87;;
57055;SDS011;42945;51.718;5.324;2022-08-19T02:56:39;60.08;;;30.25;;
57055;SDS011;42945;51.718;5.324;2022-08-19T03:02:29;57.15;;;29.15;;
57055;SDS011;42945;51.718;5.324;2022-08-19T03:08:18;51.88;;;28.15;;
57055;SDS011;42945;51.718;5.324;2022-08-19T03:14:07;50.60;;;27.13;;
57055;SDS011;42945;51.718;5.324;2022-08-19T03:19:57;51.47;;;27.67;;
57055;SDS011;42945;51.718;5.324;2022-08-19T03:25:45;47.17;;;26.42;;
57055;SDS011;42945;51.718;5.324;2022-08-19T03:31:35;49.60;;;27.25;;
57055;SDS011;42945;51.718;5.324;2022-08-19T03:37:23;57.45;;;26.67;;
57055;SDS011;42945;51.718;5.324;2022-08-19T03:43:11;55.97;;;27.73;;
57055;SDS011;42945;51.718;5.324;2022-08-19T03:49:01;53.60;;;27.27;;
57055;SDS011;42945;51.718;5.324;2022-08-19T04:09:29;50.28;;;26.13;;
57055;SDS011;42945;51.718;5.324;2022-08-19T04:15:17;54.08;;;25.70;;
57055;SDS011;42945;51.718;5.324;2022-08-19T04:21:06;55.97;;;27.55;;
57055;SDS011;42945;51.718;5.324;2022-08-19T04:26:55;58.10;;;28.23;;
57055;SDS011;42945;51.718;5.324;2022-08-19T04:32:43;63.88;;;30.70;;
57055;SDS011;42945;51.718;5.324;2022-08-19T04:38:31;76.95;;;34.42;;
57055;SDS011;42945;51.718;5.324;2022-08-19T04:44:26;87.20;;;37.22;;
57055;SDS011;42945;51.718;5.324;2022-08-19T04:50:17;82.65;;;38.10;;
57055;SDS011;42945;51.718;5.324;2022-08-19T04:56:08;102.88;;;40.55;;
57055;SDS011;42945;51.718;5.324;2022-08-19T05:01:59;105.73;;;41.97;;
57055;SDS011;42945;51.718;5.324;2022-08-19T05:07:48;100.53;;;40.22;;
57055;SDS011;42945;51.718;5.324;2022-08-19T05:13:36;99.43;;;39.67;;
57055;SDS011;42945;51.718;5.324;2022-08-19T05:19:24;95.25;;;39.00;;
57055;SDS011;42945;51.718;5.324;2022-08-19T05:25:30;87.82;;;39.38;;
57055;SDS011;42945;51.718;5.324;2022-08-19T05:31:18;82.75;;;38.33;;
57055;SDS011;42945;51.718;5.324;2022-08-19T05:37:42;87.22;;;39.85;;
57055;SDS011;42945;51.718;5.324;2022-08-19T05:43:30;80.22;;;37.72;;
57055;SDS011;42945;51.718;5.324;2022-08-19T05:49:18;186.65;;;45.97;;
57055;SDS011;42945;51.718;5.324;2022-08-19T05:55:09;207.55;;;45.25;;
57055;SDS011;42945;51.718;5.324;2022-08-19T06:00:58;86.00;;;37.22;;
57055;SDS011;42945;51.718;5.324;2022-08-19T06:06:51;80.20;;;36.63;;
57055;SDS011;42945;51.718;5.324;2022-08-19T06:12:41;78.20;;;36.30;;
57055;SDS011;42945;51.718;5.324;2022-08-19T06:18:30;68.72;;;34.33;;
57055;SDS011;42945;51.718;5.324;2022-08-19T06:24:19;71.50;;;34.03;;
57055;SDS011;42945;51.718;5.324;2022-08-19T06:30:13;79.40;;;34.03;;
57055;SDS011;42945;51.718;5.324;2022-08-19T06:40:02;71.18;;;31.75;;
57055;SDS011;42945;51.718;5.324;2022-08-19T06:45:51;71.95;;;32.20;;
57055;SDS011;42945;51.718;5.324;2022-08-19T06:51:44;81.40;;;35.33;;
57055;SDS011;42945;51.718;5.324;2022-08-19T06:57:36;75.33;;;33.57;;
57055;SDS011;42945;51.718;5.324;2022-08-19T07:03:24;80.82;;;34.30;;
57055;SDS011;42945;51.718;5.324;2022-08-19T07:09:13;67.75;;;31.58;;
57055;SDS011;42945;51.718;5.324;2022-08-19T07:15:05;61.55;;;29.48;;
57055;SDS011;42945;51.718;5.324;2022-08-19T07:26:57;62.67;;;28.63;;
57055;SDS011;42945;51.718;5.324;2022-08-19T07:32:47;64.53;;;29.45;;
57055;SDS011;42945;51.718;5.324;2022-08-19T07:42:36;66.15;;;29.58;;
57055;SDS011;42945;51.718;5.324;2022-08-19T07:48:26;70.68;;;31.42;;
57055;SDS011;42945;51.718;5.324;2022-08-19T07:54:15;60.83;;;28.97;;
57055;SDS011;42945;51.718;5.324;2022-08-19T08:00:04;62.75;;;30.58;;
57055;SDS011;42945;51.718;5.324;2022-08-19T08:05:53;60.55;;;29.98;;
57055;SDS011;42945;51.718;5.324;2022-08-19T08:12:02;53.55;;;27.42;;
57055;SDS011;42945;51.718;5.324;2022-08-19T08:17:54;51.60;;;26.05;;
57055;SDS011;42945;51.718;5.324;2022-08-19T08:23:43;47.60;;;24.35;;
57055;SDS011;42945;51.718;5.324;2022-08-19T08:29:31;43.60;;;23.08;;
57055;SDS011;42945;51.718;5.324;2022-08-19T08:35:21;40.58;;;24.02;;
57055;SDS011;42945;51.718;5.324;2022-08-19T08:45:12;48.28;;;24.92;;
57055;SDS011;42945;51.718;5.324;2022-08-19T08:51:05;48.22;;;24.42;;
57055;SDS011;42945;51.718;5.324;2022-08-19T08:56:58;51.03;;;24.67;;
57055;SDS011;42945;51.718;5.324;2022-08-19T09:02:46;56.22;;;27.23;;
57055;SDS011;42945;51.718;5.324;2022-08-19T09:08:47;45.35;;;25.75;;
57055;SDS011;42945;51.718;5.324;2022-08-19T09:14:58;50.37;;;26.07;;
57055;SDS011;42945;51.718;5.324;2022-08-19T09:20:49;41.42;;;23.88;;
57055;SDS011;42945;51.718;5.324;2022-08-19T09:26:37;42.75;;;24.33;;
57055;SDS011;42945;51.718;5.324;2022-08-19T09:32:25;45.97;;;23.38;;
57055;SDS011;42945;51.718;5.324;2022-08-19T09:38:14;39.47;;;21.83;;
57055;SDS011;42945;51.718;5.324;2022-08-19T09:48:02;43.85;;;23.65;;
57055;SDS011;42945;51.718;5.324;2022-08-19T09:53:51;45.67;;;23.13;;
57055;SDS011;42945;51.718;5.324;2022-08-19T09:59:40;43.05;;;23.40;;
57055;SDS011;42945;51.718;5.324;2022-08-19T10:05:29;37.08;;;21.80;;
57055;SDS011;42945;51.718;5.324;2022-08-19T10:11:36;40.73;;;23.77;;
57055;SDS011;42945;51.718;5.324;2022-08-19T10:17:27;39.65;;;23.13;;
57055;SDS011;42945;51.718;5.324;2022-08-19T10:23:15;45.40;;;24.80;;
57055;SDS011;42945;51.718;5.324;2022-08-19T10:29:04;40.50;;;24.42;;
57055;SDS011;42945;51.718;5.324;2022-08-19T10:34:52;38.10;;;24.60;;
57055;SDS011;42945;51.718;5.324;2022-08-19T10:40:40;38.15;;;24.15;;
57055;SDS011;42945;51.718;5.324;2022-08-19T10:50:28;39.00;;;24.05;;
57055;SDS011;42945;51.718;5.324;2022-08-19T10:56:36;39.33;;;23.95;;
57055;SDS011;42945;51.718;5.324;2022-08-19T11:02:42;45.22;;;24.98;;
57055;SDS011;42945;51.718;5.324;2022-08-19T11:08:32;35.58;;;24.35;;
57055;SDS011;42945;51.718;5.324;2022-08-19T11:14:23;39.45;;;24.67;;
57055;SDS011;42945;51.718;5.324;2022-08-19T11:20:14;43.65;;;25.88;;
57055;SDS011;42945;51.718;5.324;2022-08-19T11:26:05;42.15;;;25.83;;
57055;SDS011;42945;51.718;5.324;2022-08-19T11:31:54;40.08;;;24.90;;
57055;SDS011;42945;51.718;5.324;2022-08-19T11:37:45;43.88;;;24.85;;
57055;SDS011;42945;51.718;5.324;2022-08-19T11:43:38;42.78;;;22.25;;
57055;SDS011;42945;51.718;5.324;2022-08-19T11:53:29;44.22;;;25.35;;
57055;SDS011;42945;51.718;5.324;2022-08-19T11:59:16;35.33;;;22.87;;
57055;SDS011;42945;51.718;5.324;2022-08-19T12:05:08;30.15;;;18.73;;
57055;SDS011;42945;51.718;5.324;2022-08-19T12:11:01;41.90;;;23.23;;
57055;SDS011;42945;51.718;5.324;2022-08-19T12:16:55;33.20;;;20.25;;
57055;SDS011;42945;51.718;5.324;2022-08-19T12:22:44;26.95;;;18.83;;
57055;SDS011;42945;51.718;5.324;2022-08-19T12:28:32;31.55;;;18.17;;
57055;SDS011;42945;51.718;5.324;2022-08-19T12:34:20;30.08;;;17.25;;
57055;SDS011;42945;51.718;5.324;2022-08-19T12:40:08;27.27;;;15.25;;
57055;SDS011;42945;51.718;5.324;2022-08-19T12:45:59;24.05;;;15.85;;
57055;SDS011;42945;51.718;5.324;2022-08-19T12:55:48;15.65;;;10.60;;
57055;SDS011;42945;51.718;5.324;2022-08-19T13:01:43;19.00;;;11.07;;
57055;SDS011;42945;51.718;5.324;2022-08-19T13:07:32;26.20;;;16.38;;
57055;SDS011;42945;51.718;5.324;2022-08-19T13:13:20;38.53;;;23.27;;
57055;SDS011;42945;51.718;5.324;2022-08-19T13:19:09;44.47;;;28.95;;
57055;SDS011;42945;51.718;5.324;2022-08-19T13:24:59;47.83;;;29.80;;
57055;SDS011;42945;51.718;5.324;2022-08-19T13:30:47;44.05;;;29.17;;
57055;SDS011;42945;51.718;5.324;2022-08-19T13:36:54;30.10;;;19.63;;
57055;SDS011;42945;51.718;5.324;2022-08-19T13:42:41;21.45;;;14.30;;
57055;SDS011;42945;51.718;5.324;2022-08-19T13:48:31;16.75;;;11.00;;
57055;SDS011;42945;51.718;5.324;2022-08-19T13:58:20;25.63;;;16.30;;
57055;SDS011;42945;51.718;5.324;2022-08-19T14:04:10;29.63;;;17.73;;
57055;SDS011;42945;51.718;5.324;2022-08-19T14:09:58;26.65;;;18.40;;
57055;SDS011;42945;51.718;5.324;2022-08-19T14:15:46;22.42;;;15.45;;
57055;SDS011;42945;51.718;5.324;2022-08-19T14:21:35;19.52;;;13.40;;
57055;SDS011;42945;51.718;5.324;2022-08-19T14:27:23;11.00;;;7.93;;
57055;SDS011;42945;51.718;5.324;2022-08-19T14:33:12;11.85;;;8.02;;
57055;SDS011;42945;51.718;5.324;2022-08-19T14:39:01;11.02;;;7.53;;
57055;SDS011;42945;51.718;5.324;2022-08-19T14:50:39;3.83;;;3.10;;
57055;SDS011;42945;51.718;5.324;2022-08-19T15:00:22;8.55;;;5.45;;
57055;SDS011;42945;51.718;5.324;2022-08-19T15:06:10;6.95;;;4.93;;
57055;SDS011;42945;51.718;5.324;2022-08-19T15:11:58;13.48;;;8.68;;
57055;SDS011;42945;51.718;5.324;2022-08-19T15:17:47;12.57;;;8.93;;
57055;SDS011;42945;51.718;5.324;2022-08-19T15:23:42;17.23;;;10.98;;
57055;SDS011;42945;51.718;5.324;2022-08-19T15:29:32;18.50;;;10.05;;
57055;SDS011;42945;51.718;5.324;2022-08-19T15:35:21;8.57;;;5.47;;
57055;SDS011;42945;51.718;5.324;2022-08-19T15:41:17;5.53;;;4.55;;
57055;SDS011;42945;51.718;5.324;2022-08-19T15:47:11;13.20;;;7.10;;
57055;SDS011;42945;51.718;5.324;2022-08-19T15:53:03;15.75;;;9.90;;
57055;SDS011;42945;51.718;5.324;2022-08-19T16:06:36;19.25;;;12.45;;
57055;SDS011;42945;51.718;5.324;2022-08-19T16:12:26;23.40;;;12.10;;
57055;SDS011;42945;51.718;5.324;2022-08-19T16:18:16;21.13;;;13.00;;
57055;SDS011;42945;51.718;5.324;2022-08-19T16:24:05;23.33;;;13.38;;
57055;SDS011;42945;51.718;5.324;2022-08-19T16:29:53;17.10;;;11.30;;
57055;SDS011;42945;51.718;5.324;2022-08-19T16:35:41;14.73;;;10.27;;
57055;SDS011;42945;51.718;5.324;2022-08-19T16:41:29;13.98;;;9.70;;
57055;SDS011;42945;51.718;5.324;2022-08-19T16:47:16;14.23;;;8.95;;
57055;SDS011;42945;51.718;5.324;2022-08-19T16:53:05;12.05;;;8.55;;
57055;SDS011;42945;51.718;5.324;2022-08-19T17:02:17;9.52;;;6.70;;
57055;SDS011;42945;51.718;5.324;2022-08-19T17:08:08;6.65;;;4.50;;
57055;SDS011;42945;51.718;5.324;2022-08-19T17:13:59;6.47;;;4.20;;
57055;SDS011;42945;51.718;5.324;2022-08-19T17:19:49;8.73;;;4.53;;
57055;SDS011;42945;51.718;5.324;2022-08-19T17:25:37;4.40;;;3.20;;
57055;SDS011;42945;51.718;5.324;2022-08-19T17:31:27;5.07;;;3.00;;
57055;SDS011;42945;51.718;5.324;2022-08-19T17:37:16;7.20;;;3.97;;
57055;SDS011;42945;51.718;5.324;2022-08-19T17:43:05;7.82;;;3.58;;
57055;SDS011;42945;51.718;5.324;2022-08-19T17:48:54;7.03;;;3.40;;
57055;SDS011;42945;51.718;5.324;2022-08-19T17:54:43;6.35;;;3.90;;
57055;SDS011;42945;51.718;5.324;2022-08-19T18:00:32;8.25;;;4.25;;
57055;SDS011;42945;51.718;5.324;2022-08-19T18:06:20;6.75;;;4.18;;
57055;SDS011;42945;51.718;5.324;2022-08-19T18:12:09;6.85;;;4.25;;
57055;SDS011;42945;51.718;5.324;2022-08-19T18:17:58;7.57;;;3.28;;
57055;SDS011;42945;51.718;5.324;2022-08-19T18:23:46;4.93;;;2.83;;
57055;SDS011;42945;51.718;5.324;2022-08-19T18:29:36;7.78;;;2.45;;
57055;SDS011;42945;51.718;5.324;2022-08-19T18:35:27;6.50;;;2.60;;
57055;SDS011;42945;51.718;5.324;2022-08-19T18:41:17;4.37;;;2.70;;
57055;SDS011;42945;51.718;5.324;2022-08-19T18:47:28;7.15;;;3.40;;
57055;SDS011;42945;51.718;5.324;2022-08-19T18:53:36;7.10;;;3.67;;
57055;SDS011;42945;51.718;5.324;2022-08-19T18:59:28;7.15;;;4.40;;
57055;SDS011;42945;51.718;5.324;2022-08-19T19:05:18;10.87;;;5.60;;
57055;SDS011;42945;51.718;5.324;2022-08-19T19:11:45;10.98;;;5.30;;
57055;SDS011;42945;51.718;5.324;2022-08-19T19:17:40;9.95;;;5.03;;
57055;SDS011;42945;51.718;5.324;2022-08-19T19:23:29;9.93;;;4.93;;
57055;SDS011;42945;51.718;5.324;2022-08-19T19:29:18;14.18;;;6.18;;
57055;SDS011;42945;51.718;5.324;2022-08-19T19:35:07;10.73;;;5.30;;
57055;SDS011;42945;51.718;5.324;2022-08-19T19:40:56;13.27;;;5.80;;
57055;SDS011;42945;51.718;5.324;2022-08-19T19:46:45;13.60;;;6.83;;
57055;SDS011;42945;51.718;5.324;2022-08-19T19:52:34;11.90;;;7.13;;
57055;SDS011;42945;51.718;5.324;2022-08-19T19:58:23;15.77;;;7.32;;
57055;SDS011;42945;51.718;5.324;2022-08-19T20:04:12;17.23;;;7.05;;
57055;SDS011;42945;51.718;5.324;2022-08-19T20:10:02;12.60;;;6.72;;
57055;SDS011;42945;51.718;5.324;2022-08-19T20:15:51;12.63;;;6.40;;
57055;SDS011;42945;51.718;5.324;2022-08-19T20:21:40;12.57;;;6.57;;
57055;SDS011;42945;51.718;5.324;2022-08-19T20:27:30;10.70;;;6.15;;
57055;SDS011;42945;51.718;5.324;2022-08-19T20:33:19;13.73;;;5.90;;
57055;SDS011;42945;51.718;5.324;2022-08-19T20:39:08;15.95;;;6.47;;
57055;SDS011;42945;51.718;5.324;2022-08-19T20:44:56;13.93;;;7.40;;
57055;SDS011;42945;51.718;5.324;2022-08-19T20:50:43;17.45;;;6.78;;
57055;SDS011;42945;51.718;5.324;2022-08-19T20:56:31;8.73;;;5.90;;
57055;SDS011;42945;51.718;5.324;2022-08-19T21:06:10;9.13;;;5.20;;
57055;SDS011;42945;51.718;5.324;2022-08-19T21:12:02;6.63;;;4.95;;
57055;SDS011;42945;51.718;5.324;2022-08-19T21:17:51;12.55;;;5.75;;
57055;SDS011;42945;51.718;5.324;2022-08-19T21:23:40;8.13;;;5.20;;
57055;SDS011;42945;51.718;5.324;2022-08-19T21:29:28;9.55;;;4.85;;
57055;SDS011;42945;51.718;5.324;2022-08-19T21:35:17;9.48;;;5.20;;
57055;SDS011;42945;51.718;5.324;2022-08-19T21:41:05;11.20;;;4.63;;
57055;SDS011;42945;51.718;5.324;2022-08-19T21:46:54;7.50;;;4.65;;
57055;SDS011;42945;51.718;5.324;2022-08-19T21:52:41;6.28;;;4.13;;
57055;SDS011;42945;51.718;5.324;2022-08-19T21:58:29;9.80;;;4.55;;
57055;SDS011;42945;51.718;5.324;2022-08-19T22:08:10;8.70;;;5.20;;
57055;SDS011;42945;51.718;5.324;2022-08-19T22:14:00;9.27;;;5.20;;
57055;SDS011;42945;51.718;5.324;2022-08-19T22:19:48;12.05;;;6.60;;
57055;SDS011;42945;51.718;5.324;2022-08-19T22:25:40;8.23;;;5.20;;
57055;SDS011;42945;51.718;5.324;2022-08-19T22:31:30;9.55;;;4.68;;
57055;SDS011;42945;51.718;5.324;2022-08-19T22:37:19;11.82;;;5.07;;
57055;SDS011;42945;51.718;5.324;2022-08-19T22:43:10;9.80;;;5.00;;
57055;SDS011;42945;51.718;5.324;2022-08-19T22:49:01;10.65;;;5.20;;
57055;SDS011;42945;51.718;5.324;2022-08-19T22:54:51;11.40;;;5.30;;
57055;SDS011;42945;51.718;5.324;2022-08-19T23:00:41;9.23;;;5.63;;
57055;SDS011;42945;51.718;5.324;2022-08-19T23:10:24;12.07;;;6.00;;
57055;SDS011;42945;51.718;5.324;2022-08-19T23:16:14;9.30;;;5.53;;
57055;SDS011;42945;51.718;5.324;2022-08-19T23:22:01;10.65;;;5.20;;
57055;SDS011;42945;51.718;5.324;2022-08-19T23:27:52;9.25;;;4.85;;
57055;SDS011;42945;51.718;5.324;2022-08-19T23:33:59;9.80;;;5.45;;
57055;SDS011;42945;51.718;5.324;2022-08-19T23:39:47;10.45;;;6.35;;
57055;SDS011;42945;51.718;5.324;2022-08-19T23:45:38;9.93;;;6.17;;
57055;SDS011;42945;51.718;5.324;2022-08-19T23:51:27;12.77;;;7.33;;
57055;SDS011;42945;51.718;5.324;2022-08-19T23:57:15;12.98;;;6.80;;
